Latest Coastal Weather Observations for Smithton

IDT60701

Issued at 2:21 pm EDT Saturday 6 February 2016 (issued every 10 minutes, with the page automatically refreshed every 10 minutes)

About coastal observations | Map of coastal stations | Coastal observations for TAS | Marine services | Other Formats
Station Details ID: 091292 Name: SMITHTON AERODROME Lat: -40.83 Lon: 145.08 Height: 7.5 m
Data from the previous 72 hours. | See also: Recent months at Smithton
Date/Time
EDT
Temp

°C
Wind Pressure Rain
since 9am
mm
Weather Cloud Vis
km
Sea
Height
m
Swell
Dir
 
Speed
knots
Gust
knots
hPa Trend Height
m
Period
s
Dir
06/02:00pm 22.6 ENE 16 23 1018.9 - 0.0 - - - - - - -
06/01:30pm 22.4 ENE 16 24 1019.1 - 0.0 - - - - - - -
06/01:00pm 22.8 ENE 18 24 1018.9 - 0.0 - - - - - - -
06/12:30pm 22.7 ENE 16 22 1019.4 - 0.0 - - - - - - -
06/12:00pm 22.3 ENE 18 24 1019.4 - 0.0 - - - - - - -
06/11:30am 21.5 ENE 17 22 1019.8 - 0.0 - - - - - - -
06/11:00am 20.4 ENE 17 25 1019.9 - 0.0 - - - - - - -
06/10:30am 21.2 ENE 16 22 1020.0 - 0.0 - - - - - - -
06/10:00am 20.7 ENE 15 20 1020.2 - 0.0 - - - - - - -
06/09:30am 20.4 NE 14 19 1020.6 - 0.0 - - - - - - -
06/09:00am 21.0 ENE 14 19 1020.5 - 0.0 - - - - - - -
06/08:30am 19.6 ENE 15 19 1020.3 - 0.0 - - - - - - -
06/08:00am 19.9 ENE 14 19 1020.1 - 0.0 - - - - - - -
06/07:30am 19.2 ENE 12 17 1019.7 - 0.0 - - - - - - -
06/07:00am 18.6 ENE 14 19 1019.5 - 0.0 - - - - - - -
06/06:30am 19.0 ENE 12 17 1019.3 - 0.0 - - - - - - -
06/06:00am 19.0 NE 14 19 1019.3 - 0.0 - - - - - - -
06/05:30am 18.7 NE 13 18 1019.2 - 0.0 - - - - - - -
06/05:00am 18.7 NE 10 14 1019.3 - 0.0 - - - - - - -
06/04:30am 17.7 ENE 5 8 1019.6 - 0.0 - - - - - - -
06/04:00am 17.1 ENE 4 5 1019.6 - 0.0 - - - - - - -
06/03:30am 16.7 ENE 5 6 1020.1 - 0.0 - - - - - - -
06/03:00am 15.8 ENE 5 6 1020.5 - 0.0 - - - - - - -
06/02:30am 16.1 ENE 5 6 1020.8 - 0.0 - - - - - - -
06/02:00am 15.7 ENE 4 5 1021.1 - 0.0 - - - - - - -
06/01:30am 16.2 ENE 5 5 1021.4 - 0.0 - - - - - - -
06/01:00am 17.0 ENE 5 5 1021.7 - 0.0 - - - - - - -
06/12:30am 17.7 NNE 4 5 1021.9 - 0.0 - - - - - - -
06/12:00am 18.0 NNE 1 3 1021.9 - 0.0 - - - - - - -
 
Date/Time
EDT
Temp

°C
Wind Pressure Rain
since 9am
mm
Weather Cloud Vis
km
Sea
Height
m
Swell
Dir
 
Speed
knots
Gust
knots
hPa Trend Height
m
Period
s
Dir
05/11:30pm 17.5 NNE 3 4 1021.9 - 0.0 - - - - - - -
05/11:00pm 17.3 NNE 4 4 1022.1 - 0.0 - - - - - - -
05/10:30pm 17.2 NNE 4 5 1022.3 - 0.0 - - - - - - -
05/10:00pm 17.8 NNE 1 4 1022.4 - 0.0 - - - - - - -
05/09:30pm 18.7 CALM 0 0 1022.2 - 0.0 - - - - - - -
05/09:00pm 19.4 CALM 0 0 1022.0 - 0.0 - - - - - - -
05/08:30pm 19.5 NNE 5 6 1021.8 - 0.0 - - - - - - -
05/08:00pm 19.8 N 6 8 1021.4 - 0.0 - - - - - - -
05/07:30pm 20.3 N 8 11 1021.2 - 0.0 - - - - - - -
05/07:00pm 20.9 NNE 8 11 1021.1 - 0.0 - - - - - - -
05/06:30pm 21.6 NNE 9 12 1021.1 - 0.0 - - - - - - -
05/06:00pm 21.8 NNE 11 14 1020.9 - 0.0 - - - - - - -
05/05:30pm 22.3 NNE 11 15 1021.1 - 0.0 - - - - - - -
05/05:00pm 22.6 NNE 12 15 1021.1 - 0.0 - - - - - - -
05/04:30pm 22.8 N 11 14 1021.3 - 0.0 - - - - - - -
05/04:00pm 22.7 N 11 15 1021.6 - 0.0 - - - - - - -
05/03:30pm 23.2 N 12 14 1021.6 - 0.0 - - - - - - -
05/03:00pm 22.9 NNE 11 14 1021.8 - 0.0 - - - - - - -
05/02:30pm 23.3 N 11 14 1022.1 - 0.0 - - - - - - -
05/02:00pm 23.6 N 9 11 1022.4 - 0.0 - - - - - - -
05/01:30pm 23.2 NNE 10 14 1022.7 - 0.0 - - - - - - -
05/01:00pm 22.8 NNE 9 11 1023.0 - 0.0 - - - - - - -
05/12:30pm 23.0 NNE 9 11 1023.3 - 0.0 - - - - - - -
05/12:00pm 22.3 NNE 8 12 1023.4 - 0.0 - - - - - - -
05/11:30am 21.6 N 8 9 1023.5 - 0.0 - - - - - - -
05/11:00am 21.2 NNE 8 11 1023.4 - 0.0 - - - - - - -
05/10:30am 20.5 NNE 7 9 1023.3 - 0.0 - - - - - - -
05/10:00am 21.0 N 6 9 1023.2 - 0.0 - - - - - - -
05/09:30am 20.2 S 2 5 1023.1 - 0.0 - - - - - - -
05/09:00am 18.3 S 4 5 1023.0 - 0.0 - - - - - - -
05/08:30am 15.1 S 4 5 1022.9 - 0.0 - - - - - - -
05/08:00am 13.3 S 5 6 1022.7 - 0.0 - - - - - - -
05/07:30am 12.5 S 6 7 1022.2 - 0.0 - - - - - - -
05/07:00am 10.5 SSW 5 6 1021.8 - 0.0 - - - - - - -
05/06:30am 9.6 SSW 5 6 1021.5 - 0.0 - - - - - - -
05/06:00am 9.8 SSW 5 5 1021.4 - 0.0 - - - - - - -
05/05:30am 10.2 SSW 4 5 1021.2 - 0.0 - - - - - - -
05/05:00am 9.6 SSW 5 6 1021.0 - 0.0 - - - - - - -
05/04:30am 10.0 SSW 6 6 1020.8 - 0.0 - - - - - - -
05/04:00am 10.0 SSW 6 6 1020.6 - 0.0 - - - - - - -
05/03:30am 10.2 SSW 6 7 1020.5 - 0.0 - - - - - - -
05/03:00am 10.3 SSW 5 5 1020.7 - 0.0 - - - - - - -
05/02:30am 10.7 SSW 6 8 1020.8 - 0.0 - - - - - - -
05/02:00am 11.0 SSW 6 9 1020.9 - 0.0 - - - - - - -
05/01:30am 11.4 SSW 7 9 1020.7 - 0.0 - - - - - - -
05/01:00am 11.7 SSW 9 10 1020.5 - 0.0 - - - - - - -
05/12:30am 11.7 SSW 8 9 1020.5 - 0.0 - - - - - - -
05/12:00am 11.5 SSW 8 9 1020.4 - 0.0 - - - - - - -
 
Date/Time
EDT
Temp

°C
Wind Pressure Rain
since 9am
mm
Weather Cloud Vis
km
Sea
Height
m
Swell
Dir
 
Speed
knots
Gust
knots
hPa Trend Height
m
Period
s
Dir
04/11:30pm 12.3 SSW 9 10 1020.5 - 0.0 - - - - - - -
04/11:00pm 12.6 SSW 10 11 1020.6 - 0.0 - - - - - - -
04/10:30pm 13.1 SSW 11 12 1020.7 - 0.0 - - - - - - -
04/10:00pm 13.9 SSW 11 13 1020.5 - 0.0 - - - - - - -
04/09:30pm 14.8 SW 11 14 1020.2 - 0.0 - - - - - - -
04/09:00pm 15.6 SW 11 14 1019.9 - 0.0 - - - - - - -
04/08:30pm 16.7 SW 11 13 1019.6 - 0.0 - - - - - - -
04/08:00pm 18.2 SW 12 16 1019.2 - 0.0 - - - - - - -
04/07:30pm 19.6 SW 12 16 1018.9 - 0.0 - - - - - - -
04/07:00pm 20.5 SW 14 17 1018.7 - 0.0 - - - - - - -
04/06:30pm 21.4 SW 15 18 1018.5 - 0.0 - - - - - - -
04/06:00pm 22.3 SW 15 19 1018.3 - 0.0 - - - - - - -
04/05:30pm 23.1 SW 16 20 1018.1 - 0.0 - - - - - - -
04/05:00pm 23.6 SW 16 19 1018.2 - 0.0 - - - - - - -
04/04:30pm 23.9 SW 15 19 1018.3 - 0.0 - - - - - - -
04/04:00pm 24.4 WSW 15 19 1018.3 - 0.0 - - - - - - -
04/03:30pm 24.2 SW 12 18 1018.4 - 0.0 - - - - - - -
04/03:00pm 24.3 WSW 10 15 1018.4 - 0.0 - - - - - - -
04/02:30pm 24.7 S 10 14 1018.7 - 0.0 - - - - - - -
04/02:00pm 24.3 S 9 17 1018.9 - 0.0 - - - - - - -
04/01:30pm 23.0 S 8 12 1019.3 - 0.0 - - - - - - -
04/01:00pm 22.7 SSW 10 14 1019.7 - 0.0 - - - - - - -
04/12:30pm 22.3 SW 8 14 1019.8 - 0.0 - - - - - - -
04/12:00pm 21.9 S 9 14 1019.8 - 0.0 - - - - - - -
04/11:30am 21.3 S 11 17 1019.8 - 0.0 - - - - - - -
04/11:00am 19.7 SSW 15 19 1019.9 - 0.0 - - - - - - -
04/10:30am 18.7 S 15 19 1019.8 - 0.0 - - - - - - -
04/10:00am 18.0 S 15 21 1019.7 - 0.0 - - - - - - -
04/09:30am 16.5 S 17 22 1019.7 - 0.0 - - - - - - -
04/09:00am 16.3 S 15 19 1019.5 - 0.0 - - - - - - -
04/08:30am 14.9 S 13 17 1019.2 - 0.0 - - - - - - -
04/08:00am 13.7 S 12 16 1018.9 - 0.0 - - - - - - -
04/07:30am 12.3 S 10 13 1018.6 - 0.0 - - - - - - -
04/07:00am 11.1 SSW 12 17 1018.3 - 0.0 - - - - - - -
04/06:30am 10.7 SSW 11 13 1017.9 - 0.0 - - - - - - -
04/06:00am 10.7 SSW 11 14 1017.6 - 0.0 - - - - - - -
04/05:30am 11.0 SSW 12 14 1017.0 - 0.0 - - - - - - -
04/05:00am 10.7 SSW 10 13 1016.8 - 0.0 - - - - - - -
04/04:30am 11.2 S 10 13 1016.6 - 0.0 - - - - - - -
04/04:00am 11.1 SSE 7 10 1016.9 - 0.0 - - - - - - -
04/03:30am 11.7 SSW 14 17 1016.4 - 0.0 - - - - - - -
04/03:00am 11.3 SSW 12 14 1016.2 - 0.0 - - - - - - -
04/02:30am 11.3 S 8 9 1016.6 - 0.0 - - - - - - -
04/02:00am 12.1 SSW 9 12 1016.6 - 0.0 - - - - - - -
04/01:30am 12.9 SSW 13 16 1016.3 - 0.0 - - - - - - -
04/01:00am 13.4 SSW 13 16 1016.2 - 0.0 - - - - - - -
04/12:30am 13.2 SSW 12 15 1016.0 - 0.0 - - - - - - -
04/12:00am 13.6 SSW 13 16 1015.8 - 0.0 - - - - - - -
 
Date/Time
EDT
Temp

°C
Wind Pressure Rain
since 9am
mm
Weather Cloud Vis
km
Sea
Height
m
Swell
Dir
 
Speed
knots
Gust
knots
hPa Trend Height
m
Period
s
Dir
03/11:30pm 13.7 SSW 11 14 1016.0 - 0.0 - - - - - - -
03/11:00pm 13.7 SSW 11 13 1016.0 - 0.0 - - - - - - -
03/10:30pm 13.5 SSW 10 13 1015.9 - 0.0 - - - - - - -
03/10:00pm 14.3 SW 13 15 1015.7 - 0.0 - - - - - - -
03/09:30pm 14.4 SW 12 15 1015.3 - 0.0 - - - - - - -
03/09:00pm 15.0 SW 13 16 1014.9 - 0.0 - - - - - - -
03/08:30pm 15.4 SW 14 19 1014.3 - 0.0 - - - - - - -
03/08:00pm 16.4 SSW 18 24 1013.8 - 0.0 - - - - - - -
03/07:30pm 17.3 SSW 18 24 1012.9 - 0.0 - - - - - - -
03/07:00pm 18.0 SW 20 25 1012.4 - 0.0 - - - - - - -
03/06:30pm 19.1 SSW 21 28 1011.6 - 0.0 - - - - - - -
03/06:01pm 19.4 SSW 21 31 1011.2 - 0.0 - - - - - - -
03/06:00pm 20.0 SSW 21 30 1011.2 - 0.0 - - - - - - -
03/05:30pm 20.2 SSW 21 29 1010.8 - 0.0 - - - - - - -
03/05:00pm 20.4 SW 21 27 1010.6 - 0.0 - - - - - - -
03/04:44pm 20.9 SSW 22 32 1010.3 - 0.0 - - - - - - -
03/04:30pm 19.5 SSW 21 27 1010.3 - 0.0 - - - - - - -
03/04:00pm 21.1 SW 24 30 1009.8 - 0.0 - - - - - - -
03/03:30pm 21.5 SSW 24 30 1009.5 - 0.0 - - - - - - -
03/03:01pm 21.4 SW 23 33 1009.2 - 0.0 - - - - - - -
03/03:00pm 21.8 SW 24 33 1009.2 - 0.0 - - - - - - -
03/02:30pm 20.9 SSW 26 32 1008.9 - 0.0 - - - - - - -

Other Formats:

Comma delimited format used in spreadsheet applications
http://www.bom.gov.au/fwo/IDT60701/IDT60701.94953.axf

JavaScript Object Notation format (JSON) in row-major order
http://www.bom.gov.au/fwo/IDT60701/IDT60701.94953.json